sensor_id;sensor_type;location;lat;lon;timestamp;pressure;altitude;pressure_sealevel;temperature;humidity
57114;BME280;42994;51.606;9.988;2023-04-07T00:02:37;99119.97;;;2.07;100.00
57114;BME280;42994;51.606;9.988;2023-04-07T00:05:05;99130.00;;;1.73;100.00
57114;BME280;42994;51.606;9.988;2023-04-07T00:07:32;99133.06;;;1.78;100.00
57114;BME280;42994;51.606;9.988;2023-04-07T00:09:58;99129.06;;;1.84;100.00
57114;BME280;42994;51.606;9.988;2023-04-07T00:12:25;99127.44;;;1.92;100.00
57114;BME280;42994;51.606;9.988;2023-04-07T00:14:52;99128.53;;;1.90;100.00
57114;BME280;42994;51.606;9.988;2023-04-07T00:17:18;99134.09;;;1.87;100.00
57114;BME280;42994;51.606;9.988;2023-04-07T00:19:45;99130.44;;;1.78;100.00
57114;BME280;42994;51.606;9.988;2023-04-07T00:22:13;99121.56;;;1.89;100.00
57114;BME280;42994;51.606;9.988;2023-04-07T00:24:39;99122.94;;;1.83;100.00
57114;BME280;42994;51.606;9.988;2023-04-07T00:27:06;99119.50;;;1.62;100.00
57114;BME280;42994;51.606;9.988;2023-04-07T00:29:33;99117.69;;;1.62;100.00
57114;BME280;42994;51.606;9.988;2023-04-07T00:31:59;99112.84;;;1.67;100.00
57114;BME280;42994;51.606;9.988;2023-04-07T00:34:26;99120.13;;;1.75;100.00
57114;BME280;42994;51.606;9.988;2023-04-07T00:36:53;99111.72;;;1.60;100.00
57114;BME280;42994;51.606;9.988;2023-04-07T00:39:21;99111.69;;;1.50;100.00
57114;BME280;42994;51.606;9.988;2023-04-07T00:41:48;99115.03;;;1.52;100.00
57114;BME280;42994;51.606;9.988;2023-04-07T00:44:15;99105.56;;;1.50;100.00
57114;BME280;42994;51.606;9.988;2023-04-07T00:46:42;99108.13;;;1.40;100.00
57114;BME280;42994;51.606;9.988;2023-04-07T00:49:09;99107.22;;;1.51;100.00
57114;BME280;42994;51.606;9.988;2023-04-07T00:51:37;99106.94;;;1.23;100.00
57114;BME280;42994;51.606;9.988;2023-04-07T00:54:04;99101.41;;;1.05;100.00
57114;BME280;42994;51.606;9.988;2023-04-07T00:56:33;99101.91;;;1.20;100.00
57114;BME280;42994;51.606;9.988;2023-04-07T00:59:01;99103.63;;;1.31;100.00
57114;BME280;42994;51.606;9.988;2023-04-07T01:01:32;99096.75;;;1.19;100.00
57114;BME280;42994;51.606;9.988;2023-04-07T01:04:04;99095.41;;;1.24;100.00
57114;BME280;42994;51.606;9.988;2023-04-07T01:06:36;99098.06;;;1.24;100.00
57114;BME280;42994;51.606;9.988;2023-04-07T01:09:08;99088.28;;;1.15;100.00
57114;BME280;42994;51.606;9.988;2023-04-07T01:11:42;99089.94;;;1.16;100.00
57114;BME280;42994;51.606;9.988;2023-04-07T01:14:16;99093.09;;;1.10;100.00
57114;BME280;42994;51.606;9.988;2023-04-07T01:16:48;99097.84;;;1.16;100.00
57114;BME280;42994;51.606;9.988;2023-04-07T01:19:32;99092.53;;;1.06;100.00
57114;BME280;42994;51.606;9.988;2023-04-07T01:22:00;99081.97;;;1.06;100.00
57114;BME280;42994;51.606;9.988;2023-04-07T01:24:41;99085.19;;;1.10;100.00
57114;BME280;42994;51.606;9.988;2023-04-07T01:27:19;99086.25;;;1.07;100.00
57114;BME280;42994;51.606;9.988;2023-04-07T01:29:49;99085.81;;;1.02;100.00
57114;BME280;42994;51.606;9.988;2023-04-07T01:32:17;99085.81;;;1.02;100.00
57114;BME280;42994;51.606;9.988;2023-04-07T01:34:46;99086.38;;;1.06;100.00
57114;BME280;42994;51.606;9.988;2023-04-07T01:37:14;99083.81;;;0.94;100.00
57114;BME280;42994;51.606;9.988;2023-04-07T01:39:41;99081.28;;;0.93;100.00
57114;BME280;42994;51.606;9.988;2023-04-07T01:42:09;99078.53;;;0.94;100.00
57114;BME280;42994;51.606;9.988;2023-04-07T01:44:37;99074.38;;;0.92;100.00
57114;BME280;42994;51.606;9.988;2023-04-07T01:47:05;99084.22;;;0.90;100.00
57114;BME280;42994;51.606;9.988;2023-04-07T01:49:34;99084.59;;;0.85;100.00
57114;BME280;42994;51.606;9.988;2023-04-07T01:52:02;99083.28;;;0.80;100.00
57114;BME280;42994;51.606;9.988;2023-04-07T01:54:30;99080.84;;;0.67;100.00
57114;BME280;42994;51.606;9.988;2023-04-07T01:56:58;99074.81;;;0.76;100.00
57114;BME280;42994;51.606;9.988;2023-04-07T01:59:26;99081.41;;;0.70;100.00
57114;BME280;42994;51.606;9.988;2023-04-07T02:01:54;99085.34;;;0.76;100.00
57114;BME280;42994;51.606;9.988;2023-04-07T02:04:27;99081.19;;;0.73;100.00
57114;BME280;42994;51.606;9.988;2023-04-07T02:07:00;99082.00;;;0.74;100.00
57114;BME280;42994;51.606;9.988;2023-04-07T02:09:36;99078.13;;;0.78;100.00
57114;BME280;42994;51.606;9.988;2023-04-07T02:12:05;99072.41;;;0.73;100.00
57114;BME280;42994;51.606;9.988;2023-04-07T02:14:37;99086.81;;;0.69;100.00
57114;BME280;42994;51.606;9.988;2023-04-07T02:17:08;99082.19;;;0.61;100.00
57114;BME280;42994;51.606;9.988;2023-04-07T02:19:38;99084.81;;;0.61;100.00
57114;BME280;42994;51.606;9.988;2023-04-07T02:22:07;99085.66;;;0.62;100.00
57114;BME280;42994;51.606;9.988;2023-04-07T02:24:35;99077.28;;;0.56;100.00
57114;BME280;42994;51.606;9.988;2023-04-07T02:27:02;99073.75;;;0.46;100.00
57114;BME280;42994;51.606;9.988;2023-04-07T02:29:29;99077.41;;;0.23;100.00
57114;BME280;42994;51.606;9.988;2023-04-07T02:31:57;99078.66;;;0.40;100.00
57114;BME280;42994;51.606;9.988;2023-04-07T02:34:25;99068.16;;;0.28;100.00
57114;BME280;42994;51.606;9.988;2023-04-07T02:36:53;99073.03;;;0.44;100.00
57114;BME280;42994;51.606;9.988;2023-04-07T02:39:20;99073.84;;;0.45;100.00
57114;BME280;42994;51.606;9.988;2023-04-07T02:41:48;99072.06;;;0.45;100.00
57114;BME280;42994;51.606;9.988;2023-04-07T02:44:15;99081.25;;;0.07;100.00
57114;BME280;42994;51.606;9.988;2023-04-07T02:46:41;99068.22;;;-0.06;100.00
57114;BME280;42994;51.606;9.988;2023-04-07T02:49:09;99078.63;;;0.07;100.00
57114;BME280;42994;51.606;9.988;2023-04-07T02:51:37;99071.91;;;0.14;100.00
57114;BME280;42994;51.606;9.988;2023-04-07T02:54:05;99081.00;;;0.22;100.00
57114;BME280;42994;51.606;9.988;2023-04-07T02:56:32;99067.06;;;-0.02;100.00
57114;BME280;42994;51.606;9.988;2023-04-07T02:58:58;99075.78;;;-0.01;100.00
57114;BME280;42994;51.606;9.988;2023-04-07T03:01:26;99077.25;;;-0.20;100.00
57114;BME280;42994;51.606;9.988;2023-04-07T03:03:53;99071.69;;;0.06;100.00
57114;BME280;42994;51.606;9.988;2023-04-07T03:06:23;99069.91;;;-0.05;100.00
57114;BME280;42994;51.606;9.988;2023-04-07T03:09:14;99071.09;;;0.03;100.00
57114;BME280;42994;51.606;9.988;2023-04-07T03:11:40;99068.34;;;0.04;100.00
57114;BME280;42994;51.606;9.988;2023-04-07T03:14:08;99067.91;;;-0.12;100.00
57114;BME280;42994;51.606;9.988;2023-04-07T03:16:42;99065.00;;;0.02;100.00
57114;BME280;42994;51.606;9.988;2023-04-07T03:19:11;99064.66;;;-0.05;100.00
57114;BME280;42994;51.606;9.988;2023-04-07T03:21:42;99057.94;;;0.03;100.00
57114;BME280;42994;51.606;9.988;2023-04-07T03:24:09;99055.91;;;-0.05;100.00
57114;BME280;42994;51.606;9.988;2023-04-07T03:26:38;99063.13;;;-0.07;100.00
57114;BME280;42994;51.606;9.988;2023-04-07T03:29:13;99055.34;;;-0.43;100.00
57114;BME280;42994;51.606;9.988;2023-04-07T03:31:42;99056.06;;;-0.29;100.00
57114;BME280;42994;51.606;9.988;2023-04-07T03:34:12;99063.84;;;-0.16;100.00
57114;BME280;42994;51.606;9.988;2023-04-07T03:36:38;99053.44;;;-0.18;100.00
57114;BME280;42994;51.606;9.988;2023-04-07T03:39:05;99053.16;;;-0.15;100.00
57114;BME280;42994;51.606;9.988;2023-04-07T03:41:32;99052.25;;;-0.25;100.00
57114;BME280;42994;51.606;9.988;2023-04-07T03:44:00;99047.00;;;-0.36;100.00
57114;BME280;42994;51.606;9.988;2023-04-07T03:46:29;99052.56;;;-0.18;100.00
57114;BME280;42994;51.606;9.988;2023-04-07T03:48:57;99053.28;;;-0.28;100.00
57114;BME280;42994;51.606;9.988;2023-04-07T03:51:25;99052.56;;;-0.18;100.00
57114;BME280;42994;51.606;9.988;2023-04-07T03:53:54;99053.44;;;-0.63;100.00
57114;BME280;42994;51.606;9.988;2023-04-07T03:56:41;99048.75;;;-0.37;100.00
57114;BME280;42994;51.606;9.988;2023-04-07T03:59:09;99056.28;;;-0.21;100.00
57114;BME280;42994;51.606;9.988;2023-04-07T04:01:48;99046.25;;;-0.39;100.00
57114;BME280;42994;51.606;9.988;2023-04-07T04:04:15;99063.38;;;-0.22;100.00
57114;BME280;42994;51.606;9.988;2023-04-07T04:06:41;99058.69;;;-0.29;100.00
57114;BME280;42994;51.606;9.988;2023-04-07T04:09:47;99059.16;;;-0.24;100.00
57114;BME280;42994;51.606;9.988;2023-04-07T04:12:14;99060.75;;;-0.33;100.00
57114;BME280;42994;51.606;9.988;2023-04-07T04:15:03;99067.31;;;-0.50;100.00
57114;BME280;42994;51.606;9.988;2023-04-07T04:17:30;99055.00;;;-0.49;100.00
57114;BME280;42994;51.606;9.988;2023-04-07T04:19:57;99071.38;;;-0.57;100.00
57114;BME280;42994;51.606;9.988;2023-04-07T04:22:39;99060.63;;;-0.43;100.00
57114;BME280;42994;51.606;9.988;2023-04-07T04:25:07;99060.72;;;-0.44;100.00
57114;BME280;42994;51.606;9.988;2023-04-07T04:27:34;99067.22;;;-0.48;100.00
57114;BME280;42994;51.606;9.988;2023-04-07T04:30:09;99052.84;;;-0.78;100.00
57114;BME280;42994;51.606;9.988;2023-04-07T04:32:42;99063.88;;;-0.62;100.00
57114;BME280;42994;51.606;9.988;2023-04-07T04:35:09;99057.16;;;-0.54;100.00
57114;BME280;42994;51.606;9.988;2023-04-07T04:37:44;99065.03;;;-0.88;100.00
57114;BME280;42994;51.606;9.988;2023-04-07T04:40:13;99064.34;;;-0.56;100.00
57114;BME280;42994;51.606;9.988;2023-04-07T04:42:42;99065.06;;;-0.66;100.00
57114;BME280;42994;51.606;9.988;2023-04-07T04:45:12;99059.53;;;-0.85;100.00
57114;BME280;42994;51.606;9.988;2023-04-07T04:47:44;99060.75;;;-0.78;100.00
57114;BME280;42994;51.606;9.988;2023-04-07T04:50:11;99057.84;;;-0.86;100.00
57114;BME280;42994;51.606;9.988;2023-04-07T04:52:40;99069.25;;;-0.74;100.00
57114;BME280;42994;51.606;9.988;2023-04-07T04:55:16;99068.25;;;-0.85;100.00
57114;BME280;42994;51.606;9.988;2023-04-07T04:57:44;99066.22;;;-0.81;100.00
57114;BME280;42994;51.606;9.988;2023-04-07T05:00:18;99068.97;;;-0.83;100.00
57114;BME280;42994;51.606;9.988;2023-04-07T05:02:49;99079.28;;;-0.80;100.00
57114;BME280;42994;51.606;9.988;2023-04-07T05:05:16;99071.97;;;-0.87;100.00
57114;BME280;42994;51.606;9.988;2023-04-07T05:07:43;99070.38;;;-1.01;100.00
57114;BME280;42994;51.606;9.988;2023-04-07T05:10:12;99073.59;;;-1.09;100.00
57114;BME280;42994;51.606;9.988;2023-04-07T05:12:46;99072.19;;;-1.02;100.00
57114;BME280;42994;51.606;9.988;2023-04-07T05:15:13;99072.91;;;-1.00;100.00
57114;BME280;42994;51.606;9.988;2023-04-07T05:17:45;99079.38;;;-0.92;100.00
57114;BME280;42994;51.606;9.988;2023-04-07T05:20:19;99075.53;;;-1.11;100.00
57114;BME280;42994;51.606;9.988;2023-04-07T05:22:46;99069.91;;;-0.95;100.00
57114;BME280;42994;51.606;9.988;2023-04-07T05:25:13;99075.03;;;-1.16;100.00
57114;BME280;42994;51.606;9.988;2023-04-07T05:27:43;99075.53;;;-1.11;100.00
57114;BME280;42994;51.606;9.988;2023-04-07T05:30:14;99079.25;;;-1.02;100.00
57114;BME280;42994;51.606;9.988;2023-04-07T05:32:41;99078.13;;;-1.22;100.00
57114;BME280;42994;51.606;9.988;2023-04-07T05:35:18;99075.53;;;-1.11;100.00
57114;BME280;42994;51.606;9.988;2023-04-07T05:37:50;99070.84;;;-1.19;100.00
57114;BME280;42994;51.606;9.988;2023-04-07T05:40:17;99082.72;;;-1.02;100.00
57114;BME280;42994;51.606;9.988;2023-04-07T05:42:44;99078.66;;;-1.06;100.00
57114;BME280;42994;51.606;9.988;2023-04-07T05:45:12;99074.09;;;-1.04;100.00
57114;BME280;42994;51.606;9.988;2023-04-07T05:47:42;99074.72;;;-1.00;100.00
57114;BME280;42994;51.606;9.988;2023-04-07T05:50:09;99070.75;;;-1.06;100.00
57114;BME280;42994;51.606;9.988;2023-04-07T05:52:45;99085.84;;;-0.97;100.00
57114;BME280;42994;51.606;9.988;2023-04-07T05:55:22;99089.41;;;-0.98;100.00
57114;BME280;42994;51.606;9.988;2023-04-07T05:57:50;99085.38;;;-0.90;100.00
57114;BME280;42994;51.606;9.988;2023-04-07T06:00:20;99089.91;;;-0.92;100.00
57114;BME280;42994;51.606;9.988;2023-04-07T06:02:57;99088.69;;;-1.00;100.00
57114;BME280;42994;51.606;9.988;2023-04-07T06:05:25;99087.28;;;-0.92;100.00
57114;BME280;42994;51.606;9.988;2023-04-07T06:07:56;99090.91;;;-0.82;100.00
57114;BME280;42994;51.606;9.988;2023-04-07T06:10:25;99090.91;;;-0.82;100.00
57114;BME280;42994;51.606;9.988;2023-04-07T06:12:52;99093.88;;;-0.75;100.00
57114;BME280;42994;51.606;9.988;2023-04-07T06:15:22;99098.09;;;-0.62;100.00
57114;BME280;42994;51.606;9.988;2023-04-07T06:17:49;99099.78;;;-0.49;100.00
57114;BME280;42994;51.606;9.988;2023-04-07T06:20:16;99097.16;;;-0.49;100.00
57114;BME280;42994;51.606;9.988;2023-04-07T06:22:44;99097.50;;;-0.43;100.00
57114;BME280;42994;51.606;9.988;2023-04-07T06:25:12;99089.81;;;-0.23;100.00
57114;BME280;42994;51.606;9.988;2023-04-07T06:27:38;99099.75;;;-0.15;100.00
57114;BME280;42994;51.606;9.988;2023-04-07T06:30:06;99094.81;;;0.03;100.00
57114;BME280;42994;51.606;9.988;2023-04-07T06:32:34;99101.41;;;0.08;100.00
57114;BME280;42994;51.606;9.988;2023-04-07T06:35:02;99097.31;;;0.15;100.00
57114;BME280;42994;51.606;9.988;2023-04-07T06:37:29;99100.34;;;0.43;100.00
57114;BME280;42994;51.606;9.988;2023-04-07T06:39:55;99098.53;;;0.55;100.00
57114;BME280;42994;51.606;9.988;2023-04-07T06:42:24;99102.19;;;0.64;100.00
57114;BME280;42994;51.606;9.988;2023-04-07T06:45:04;99103.94;;;0.74;100.00
57114;BME280;42994;51.606;9.988;2023-04-07T06:47:31;99101.34;;;0.95;100.00
57114;BME280;42994;51.606;9.988;2023-04-07T06:49:58;99100.16;;;1.09;100.00
57114;BME280;42994;51.606;9.988;2023-04-07T06:52:25;99100.41;;;1.27;100.00
57114;BME280;42994;51.606;9.988;2023-04-07T06:54:52;99102.84;;;1.40;100.00
57114;BME280;42994;51.606;9.988;2023-04-07T06:57:19;99101.13;;;1.60;100.00
57114;BME280;42994;51.606;9.988;2023-04-07T06:59:48;99105.47;;;1.92;100.00
57114;BME280;42994;51.606;9.988;2023-04-07T07:02:15;99101.00;;;2.02;100.00
57114;BME280;42994;51.606;9.988;2023-04-07T07:04:42;99098.28;;;2.14;100.00
57114;BME280;42994;51.606;9.988;2023-04-07T07:07:09;99097.75;;;2.29;100.00
57114;BME280;42994;51.606;9.988;2023-04-07T07:09:36;99100.41;;;2.39;100.00
57114;BME280;42994;51.606;9.988;2023-04-07T07:12:02;99106.69;;;2.58;100.00
57114;BME280;42994;51.606;9.988;2023-04-07T07:14:30;99109.06;;;2.80;100.00
57114;BME280;42994;51.606;9.988;2023-04-07T07:17:00;99105.03;;;2.96;100.00
57114;BME280;42994;51.606;9.988;2023-04-07T07:19:26;99102.09;;;3.08;100.00
57114;BME280;42994;51.606;9.988;2023-04-07T07:21:53;99108.38;;;2.98;100.00
57114;BME280;42994;51.606;9.988;2023-04-07T07:24:20;99116.59;;;3.14;100.00
57114;BME280;42994;51.606;9.988;2023-04-07T07:26:47;99114.72;;;3.34;100.00
57114;BME280;42994;51.606;9.988;2023-04-07T07:29:14;99120.59;;;3.28;100.00
57114;BME280;42994;51.606;9.988;2023-04-07T07:31:41;99114.84;;;3.42;100.00
57114;BME280;42994;51.606;9.988;2023-04-07T07:34:09;99129.31;;;3.48;100.00
57114;BME280;42994;51.606;9.988;2023-04-07T07:36:35;99124.41;;;3.63;100.00
57114;BME280;42994;51.606;9.988;2023-04-07T07:39:02;99118.41;;;3.61;100.00
57114;BME280;42994;51.606;9.988;2023-04-07T07:41:29;99129.28;;;3.68;100.00
57114;BME280;42994;51.606;9.988;2023-04-07T07:43:56;99128.00;;;3.72;100.00
57114;BME280;42994;51.606;9.988;2023-04-07T07:46:23;99132.09;;;3.94;100.00
57114;BME280;42994;51.606;9.988;2023-04-07T07:48:51;99127.25;;;4.17;100.00
57114;BME280;42994;51.606;9.988;2023-04-07T07:51:19;99129.81;;;4.36;100.00
57114;BME280;42994;51.606;9.988;2023-04-07T07:53:47;99130.28;;;4.50;100.00
57114;BME280;42994;51.606;9.988;2023-04-07T07:56:15;99135.75;;;4.66;100.00
57114;BME280;42994;51.606;9.988;2023-04-07T07:58:41;99129.97;;;4.71;100.00
57114;BME280;42994;51.606;9.988;2023-04-07T08:01:08;99129.84;;;4.72;100.00
57114;BME280;42994;51.606;9.988;2023-04-07T08:03:35;99132.56;;;4.80;100.00
57114;BME280;42994;51.606;9.988;2023-04-07T08:06:02;99135.63;;;4.86;100.00
57114;BME280;42994;51.606;9.988;2023-04-07T08:08:30;99134.47;;;4.88;100.00
57114;BME280;42994;51.606;9.988;2023-04-07T08:10:57;99142.81;;;5.11;100.00
57114;BME280;42994;51.606;9.988;2023-04-07T08:13:23;99135.41;;;5.23;100.00
57114;BME280;42994;51.606;9.988;2023-04-07T08:15:50;99133.38;;;5.35;100.00
57114;BME280;42994;51.606;9.988;2023-04-07T08:18:16;99140.97;;;5.30;100.00
57114;BME280;42994;51.606;9.988;2023-04-07T08:20:43;99143.78;;;5.54;100.00
57114;BME280;42994;51.606;9.988;2023-04-07T08:23:11;99134.59;;;5.49;100.00
57114;BME280;42994;51.606;9.988;2023-04-07T08:25:39;99145.25;;;5.75;100.00
57114;BME280;42994;51.606;9.988;2023-04-07T08:28:05;99143.91;;;5.97;100.00
57114;BME280;42994;51.606;9.988;2023-04-07T08:30:32;99141.13;;;6.07;100.00
57114;BME280;42994;51.606;9.988;2023-04-07T08:32:59;99137.88;;;6.29;100.00
57114;BME280;42994;51.606;9.988;2023-04-07T08:35:25;99137.75;;;6.39;100.00
57114;BME280;42994;51.606;9.988;2023-04-07T08:37:52;99140.25;;;6.41;100.00
57114;BME280;42994;51.606;9.988;2023-04-07T08:40:18;99143.25;;;6.46;100.00
57114;BME280;42994;51.606;9.988;2023-04-07T08:42:47;99139.59;;;6.47;100.00
57114;BME280;42994;51.606;9.988;2023-04-07T08:45:16;99145.34;;;6.93;100.00
57114;BME280;42994;51.606;9.988;2023-04-07T08:47:45;99140.03;;;7.42;100.00
57114;BME280;42994;51.606;9.988;2023-04-07T08:50:16;99136.53;;;7.34;100.00
57114;BME280;42994;51.606;9.988;2023-04-07T08:52:44;99131.16;;;7.66;100.00
57114;BME280;42994;51.606;9.988;2023-04-07T08:55:12;99130.66;;;7.71;100.00
57114;BME280;42994;51.606;9.988;2023-04-07T08:57:40;99135.94;;;7.79;100.00
57114;BME280;42994;51.606;9.988;2023-04-07T09:02:37;99128.41;;;8.39;100.00
57114;BME280;42994;51.606;9.988;2023-04-07T09:05:07;99132.25;;;8.36;100.00
57114;BME280;42994;51.606;9.988;2023-04-07T09:07:35;99136.19;;;8.57;100.00
57114;BME280;42994;51.606;9.988;2023-04-07T09:10:02;99128.63;;;9.15;100.00
57114;BME280;42994;51.606;9.988;2023-04-07T09:12:29;99130.69;;;9.04;100.00
57114;BME280;42994;51.606;9.988;2023-04-07T09:14:56;99125.22;;;8.75;100.00
57114;BME280;42994;51.606;9.988;2023-04-07T09:17:24;99135.88;;;9.44;100.00
57114;BME280;42994;51.606;9.988;2023-04-07T09:19:55;99144.38;;;9.48;100.00
57114;BME280;42994;51.606;9.988;2023-04-07T09:22:36;99132.13;;;9.68;100.00
57114;BME280;42994;51.606;9.988;2023-04-07T09:25:13;99134.94;;;9.90;100.00
57114;BME280;42994;51.606;9.988;2023-04-07T09:27:40;99136.97;;;9.88;100.00
57114;BME280;42994;51.606;9.988;2023-04-07T09:30:19;99139.19;;;9.99;100.00
57114;BME280;42994;51.606;9.988;2023-04-07T09:32:46;99142.50;;;10.01;100.00
57114;BME280;42994;51.606;9.988;2023-04-07T09:35:14;99137.94;;;10.16;100.00
57114;BME280;42994;51.606;9.988;2023-04-07T09:37:40;99124.94;;;10.28;100.00
57114;BME280;42994;51.606;9.988;2023-04-07T09:40:08;99131.06;;;10.37;100.00
57114;BME280;42994;51.606;9.988;2023-04-07T09:42:43;99123.34;;;10.49;98.81
57114;BME280;42994;51.606;9.988;2023-04-07T09:45:10;99115.44;;;10.41;96.64
57114;BME280;42994;51.606;9.988;2023-04-07T09:47:38;99108.25;;;10.63;94.53
57114;BME280;42994;51.606;9.988;2023-04-07T09:50:06;99106.06;;;10.51;93.15
57114;BME280;42994;51.606;9.988;2023-04-07T09:52:50;99111.53;;;10.80;93.53
57114;BME280;42994;51.606;9.988;2023-04-07T09:55:19;99101.44;;;11.03;91.07
57114;BME280;42994;51.606;9.988;2023-04-07T09:57:48;99096.53;;;11.07;90.38
57114;BME280;42994;51.606;9.988;2023-04-07T10:00:15;99099.44;;;11.33;89.87
57114;BME280;42994;51.606;9.988;2023-04-07T10:02:43;99095.00;;;11.26;89.67
57114;BME280;42994;51.606;9.988;2023-04-07T10:05:10;99087.72;;;11.41;88.80
57114;BME280;42994;51.606;9.988;2023-04-07T10:07:37;99088.31;;;11.65;87.18
57114;BME280;42994;51.606;9.988;2023-04-07T10:10:06;99087.22;;;11.59;86.93
57114;BME280;42994;51.606;9.988;2023-04-07T10:12:33;99089.97;;;11.38;84.96
57114;BME280;42994;51.606;9.988;2023-04-07T10:15:03;99085.19;;;11.68;84.09
57114;BME280;42994;51.606;9.988;2023-04-07T10:17:31;99069.53;;;11.71;77.38
57114;BME280;42994;51.606;9.988;2023-04-07T10:20:00;99060.53;;;11.86;73.68
57114;BME280;42994;51.606;9.988;2023-04-07T10:22:31;99060.53;;;11.86;72.79
57114;BME280;42994;51.606;9.988;2023-04-07T10:24:59;99062.00;;;11.88;69.95
57114;BME280;42994;51.606;9.988;2023-04-07T10:27:32;99069.78;;;11.77;69.11
57114;BME280;42994;51.606;9.988;2023-04-07T10:30:00;99061.03;;;11.96;69.12
57114;BME280;42994;51.606;9.988;2023-04-07T10:32:29;99060.22;;;12.02;67.94
57114;BME280;42994;51.606;9.988;2023-04-07T10:34:57;99055.16;;;11.86;65.78
57114;BME280;42994;51.606;9.988;2023-04-07T10:37:25;99067.78;;;12.27;66.69
57114;BME280;42994;51.606;9.988;2023-04-07T10:42:54;99049.50;;;12.09;62.81
57114;BME280;42994;51.606;9.988;2023-04-07T10:45:53;99050.41;;;12.29;63.11
57114;BME280;42994;51.606;9.988;2023-04-07T10:48:21;99050.38;;;12.16;63.02
57114;BME280;42994;51.606;9.988;2023-04-07T10:51:10;99046.88;;;12.22;61.49
57114;BME280;42994;51.606;9.988;2023-04-07T10:54:18;99054.38;;;12.40;61.40
57114;BME280;42994;51.606;9.988;2023-04-07T10:57:14;99045.22;;;12.28;61.14
57114;BME280;42994;51.606;9.988;2023-04-07T11:02:32;99042.97;;;12.25;60.03
57114;BME280;42994;51.606;9.988;2023-04-07T11:04:59;99057.19;;;12.19;59.96
57114;BME280;42994;51.606;9.988;2023-04-07T11:07:48;99049.75;;;12.21;59.10
57114;BME280;42994;51.606;9.988;2023-04-07T11:10:15;99037.34;;;12.20;58.72
57114;BME280;42994;51.606;9.988;2023-04-07T11:12:57;99046.28;;;12.34;59.73
57114;BME280;42994;51.606;9.988;2023-04-07T11:15:24;99033.69;;;12.41;58.14
57114;BME280;42994;51.606;9.988;2023-04-07T11:18:20;99052.13;;;12.50;60.34
57114;BME280;42994;51.606;9.988;2023-04-07T11:20:50;99034.06;;;12.31;56.97
57114;BME280;42994;51.606;9.988;2023-04-07T11:23:19;99041.34;;;12.44;56.57
57114;BME280;42994;51.606;9.988;2023-04-07T11:25:50;99037.00;;;12.36;57.40
57114;BME280;42994;51.606;9.988;2023-04-07T11:28:17;99041.16;;;12.45;58.03
57114;BME280;42994;51.606;9.988;2023-04-07T11:30:45;99031.41;;;12.38;56.06
57114;BME280;42994;51.606;9.988;2023-04-07T11:33:15;99024.59;;;12.42;54.97
57114;BME280;42994;51.606;9.988;2023-04-07T11:35:48;99036.00;;;12.50;54.84
57114;BME280;42994;51.606;9.988;2023-04-07T11:38:15;99024.41;;;12.43;54.12
57114;BME280;42994;51.606;9.988;2023-04-07T11:40:42;99026.84;;;12.31;54.45
57114;BME280;42994;51.606;9.988;2023-04-07T11:43:16;99032.69;;;12.48;53.66
57114;BME280;42994;51.606;9.988;2023-04-07T11:45:43;99019.66;;;12.45;52.31
57114;BME280;42994;51.606;9.988;2023-04-07T11:48:26;99030.59;;;12.44;54.14
57114;BME280;42994;51.606;9.988;2023-04-07T11:50:54;99038.06;;;12.48;53.68
57114;BME280;42994;51.606;9.988;2023-04-07T11:53:26;99034.75;;;12.66;54.45
57114;BME280;42994;51.606;9.988;2023-04-07T11:56:01;99012.03;;;12.82;52.65
57114;BME280;42994;51.606;9.988;2023-04-07T11:58:28;99032.13;;;12.80;53.22
57114;BME280;42994;51.606;9.988;2023-04-07T12:00:55;99026.13;;;12.98;53.23
57114;BME280;42994;51.606;9.988;2023-04-07T12:03:22;99021.56;;;12.92;52.89
57114;BME280;42994;51.606;9.988;2023-04-07T12:05:49;99024.63;;;12.68;53.29
57114;BME280;42994;51.606;9.988;2023-04-07T12:08:18;99031.06;;;12.74;53.08
57114;BME280;42994;51.606;9.988;2023-04-07T12:10:46;99039.97;;;13.01;53.84
57114;BME280;42994;51.606;9.988;2023-04-07T12:13:13;99026.94;;;12.98;52.68
57114;BME280;42994;51.606;9.988;2023-04-07T12:15:39;99024.88;;;13.00;51.47
57114;BME280;42994;51.606;9.988;2023-04-07T12:18:07;99024.44;;;13.17;52.16
57114;BME280;42994;51.606;9.988;2023-04-07T12:20:34;99014.31;;;13.25;51.68
57114;BME280;42994;51.606;9.988;2023-04-07T12:23:00;99024.47;;;13.37;52.72
57114;BME280;42994;51.606;9.988;2023-04-07T12:25:28;99016.97;;;13.59;51.72
57114;BME280;42994;51.606;9.988;2023-04-07T12:27:55;99003.72;;;13.51;49.31
57114;BME280;42994;51.606;9.988;2023-04-07T12:30:22;99019.91;;;13.44;50.08
57114;BME280;42994;51.606;9.988;2023-04-07T12:32:48;99007.66;;;13.55;49.19
57114;BME280;42994;51.606;9.988;2023-04-07T12:35:15;99012.84;;;13.43;49.60
57114;BME280;42994;51.606;9.988;2023-04-07T12:37:42;99015.34;;;13.38;49.68
57114;BME280;42994;51.606;9.988;2023-04-07T12:40:11;99003.94;;;13.49;48.09
57114;BME280;42994;51.606;9.988;2023-04-07T12:42:39;99009.13;;;13.44;48.24
57114;BME280;42994;51.606;9.988;2023-04-07T12:45:06;98996.47;;;13.44;47.21
57114;BME280;42994;51.606;9.988;2023-04-07T12:47:33;99018.44;;;13.48;48.60
57114;BME280;42994;51.606;9.988;2023-04-07T12:50:01;99009.75;;;13.46;48.29
57114;BME280;42994;51.606;9.988;2023-04-07T12:52:28;99012.31;;;13.86;48.87
57114;BME280;42994;51.606;9.988;2023-04-07T12:54:55;99005.09;;;13.80;47.77
57114;BME280;42994;51.606;9.988;2023-04-07T12:57:24;98995.56;;;13.71;45.74
57114;BME280;42994;51.606;9.988;2023-04-07T12:59:52;99013.00;;;13.75;47.24
57114;BME280;42994;51.606;9.988;2023-04-07T13:02:19;98998.25;;;13.77;46.60
57114;BME280;42994;51.606;9.988;2023-04-07T13:04:45;98990.75;;;13.86;46.24
57114;BME280;42994;51.606;9.988;2023-04-07T13:07:13;98989.56;;;13.69;45.43
57114;BME280;42994;51.606;9.988;2023-04-07T13:09:40;99004.09;;;13.68;46.99
57114;BME280;42994;51.606;9.988;2023-04-07T13:12:08;99006.34;;;13.77;46.79
57114;BME280;42994;51.606;9.988;2023-04-07T13:14:36;98997.84;;;13.67;46.07
57114;BME280;42994;51.606;9.988;2023-04-07T13:17:05;99011.56;;;13.59;46.65
57114;BME280;42994;51.606;9.988;2023-04-07T13:19:33;98996.03;;;13.68;45.09